sensor_id;sensor_type;location;lat;lon;timestamp;temperature;humidity
23748;DHT22;12054;53.662;10.126;2023-04-25T00:02:00;9.60;99.90
23748;DHT22;12054;53.662;10.126;2023-04-25T00:04:27;9.50;99.90
23748;DHT22;12054;53.662;10.126;2023-04-25T00:06:53;9.50;99.90
23748;DHT22;12054;53.662;10.126;2023-04-25T00:09:19;9.50;99.90
23748;DHT22;12054;53.662;10.126;2023-04-25T00:11:48;9.50;99.90
23748;DHT22;12054;53.662;10.126;2023-04-25T00:14:20;9.50;99.90
23748;DHT22;12054;53.662;10.126;2023-04-25T00:17:09;9.40;99.90
23748;DHT22;12054;53.662;10.126;2023-04-25T00:19:33;9.40;99.90
23748;DHT22;12054;53.662;10.126;2023-04-25T00:22:00;9.40;99.90
23748;DHT22;12054;53.662;10.126;2023-04-25T00:24:26;9.40;99.90
23748;DHT22;12054;53.662;10.126;2023-04-25T00:27:37;9.40;99.90
23748;DHT22;12054;53.662;10.126;2023-04-25T00:29:46;9.50;99.90
23748;DHT22;12054;53.662;10.126;2023-04-25T00:32:17;9.50;99.90
23748;DHT22;12054;53.662;10.126;2023-04-25T00:34:50;9.50;99.90
23748;DHT22;12054;53.662;10.126;2023-04-25T00:37:15;9.60;99.90
23748;DHT22;12054;53.662;10.126;2023-04-25T00:39:41;9.50;99.90
23748;DHT22;12054;53.662;10.126;2023-04-25T00:42:08;9.50;99.90
23748;DHT22;12054;53.662;10.126;2023-04-25T00:44:34;9.50;99.90
23748;DHT22;12054;53.662;10.126;2023-04-25T00:47:02;9.50;99.90
23748;DHT22;12054;53.662;10.126;2023-04-25T00:49:30;9.50;99.90
23748;DHT22;12054;53.662;10.126;2023-04-25T00:51:59;9.40;99.90
23748;DHT22;12054;53.662;10.126;2023-04-25T00:54:25;9.40;99.90
23748;DHT22;12054;53.662;10.126;2023-04-25T00:56:52;9.40;99.90
23748;DHT22;12054;53.662;10.126;2023-04-25T00:59:19;9.40;99.90
23748;DHT22;12054;53.662;10.126;2023-04-25T01:02:00;9.50;99.90
23748;DHT22;12054;53.662;10.126;2023-04-25T01:04:27;9.40;99.90
23748;DHT22;12054;53.662;10.126;2023-04-25T01:06:54;9.40;99.90
23748;DHT22;12054;53.662;10.126;2023-04-25T01:09:20;9.40;99.90
23748;DHT22;12054;53.662;10.126;2023-04-25T01:11:46;9.40;99.90
23748;DHT22;12054;53.662;10.126;2023-04-25T01:14:11;9.40;99.90
23748;DHT22;12054;53.662;10.126;2023-04-25T01:16:37;9.40;99.90
23748;DHT22;12054;53.662;10.126;2023-04-25T01:19:08;9.40;99.90
23748;DHT22;12054;53.662;10.126;2023-04-25T01:21:36;9.40;99.90
23748;DHT22;12054;53.662;10.126;2023-04-25T01:24:02;9.40;99.90
23748;DHT22;12054;53.662;10.126;2023-04-25T01:26:28;9.40;99.90
23748;DHT22;12054;53.662;10.126;2023-04-25T01:28:54;9.40;99.90
23748;DHT22;12054;53.662;10.126;2023-04-25T01:31:20;9.30;99.90
23748;DHT22;12054;53.662;10.126;2023-04-25T01:33:46;9.30;99.90
23748;DHT22;12054;53.662;10.126;2023-04-25T01:36:12;9.30;99.90
23748;DHT22;12054;53.662;10.126;2023-04-25T01:38:38;9.40;99.90
23748;DHT22;12054;53.662;10.126;2023-04-25T01:41:05;9.20;99.90
23748;DHT22;12054;53.662;10.126;2023-04-25T01:43:31;9.10;99.90
23748;DHT22;12054;53.662;10.126;2023-04-25T01:45:56;9.10;99.90
23748;DHT22;12054;53.662;10.126;2023-04-25T01:48:22;9.10;99.90
23748;DHT22;12054;53.662;10.126;2023-04-25T01:50:48;9.10;99.90
23748;DHT22;12054;53.662;10.126;2023-04-25T01:53:14;9.10;99.90
23748;DHT22;12054;53.662;10.126;2023-04-25T01:55:40;9.10;99.90
23748;DHT22;12054;53.662;10.126;2023-04-25T01:58:05;9.10;99.90
23748;DHT22;12054;53.662;10.126;2023-04-25T02:00:38;9.10;99.90
23748;DHT22;12054;53.662;10.126;2023-04-25T02:03:05;9.00;99.90
23748;DHT22;12054;53.662;10.126;2023-04-25T02:05:40;9.00;99.90
23748;DHT22;12054;53.662;10.126;2023-04-25T02:08:06;9.00;99.90
23748;DHT22;12054;53.662;10.126;2023-04-25T02:10:33;9.00;99.90
23748;DHT22;12054;53.662;10.126;2023-04-25T02:12:59;9.10;99.90
23748;DHT22;12054;53.662;10.126;2023-04-25T02:15:24;9.10;99.90
23748;DHT22;12054;53.662;10.126;2023-04-25T02:17:50;9.00;99.90
23748;DHT22;12054;53.662;10.126;2023-04-25T02:20:18;9.10;99.90
23748;DHT22;12054;53.662;10.126;2023-04-25T02:22:45;9.00;99.90
23748;DHT22;12054;53.662;10.126;2023-04-25T02:25:11;9.00;99.90
23748;DHT22;12054;53.662;10.126;2023-04-25T02:27:37;9.10;99.90
23748;DHT22;12054;53.662;10.126;2023-04-25T02:30:03;9.10;99.90
23748;DHT22;12054;53.662;10.126;2023-04-25T02:32:30;9.00;99.90
23748;DHT22;12054;53.662;10.126;2023-04-25T02:34:55;9.00;99.90
23748;DHT22;12054;53.662;10.126;2023-04-25T02:37:24;9.00;99.90
23748;DHT22;12054;53.662;10.126;2023-04-25T02:39:50;9.00;99.90
23748;DHT22;12054;53.662;10.126;2023-04-25T02:42:15;8.90;99.90
23748;DHT22;12054;53.662;10.126;2023-04-25T02:44:41;8.90;99.90
23748;DHT22;12054;53.662;10.126;2023-04-25T02:47:06;8.90;99.90
23748;DHT22;12054;53.662;10.126;2023-04-25T02:49:32;8.90;99.90
23748;DHT22;12054;53.662;10.126;2023-04-25T02:51:57;8.90;99.90
23748;DHT22;12054;53.662;10.126;2023-04-25T02:54:23;8.90;99.90
23748;DHT22;12054;53.662;10.126;2023-04-25T02:56:49;8.80;99.90
23748;DHT22;12054;53.662;10.126;2023-04-25T02:59:14;8.80;99.90
23748;DHT22;12054;53.662;10.126;2023-04-25T03:01:39;8.80;99.90
23748;DHT22;12054;53.662;10.126;2023-04-25T03:04:05;8.80;99.90
23748;DHT22;12054;53.662;10.126;2023-04-25T03:06:30;8.80;99.90
23748;DHT22;12054;53.662;10.126;2023-04-25T03:08:56;8.70;99.90
23748;DHT22;12054;53.662;10.126;2023-04-25T03:11:21;8.70;99.90
23748;DHT22;12054;53.662;10.126;2023-04-25T03:13:47;8.60;99.90
23748;DHT22;12054;53.662;10.126;2023-04-25T03:16:13;8.70;99.90
23748;DHT22;12054;53.662;10.126;2023-04-25T03:18:38;8.60;99.90
23748;DHT22;12054;53.662;10.126;2023-04-25T03:21:04;8.60;99.90
23748;DHT22;12054;53.662;10.126;2023-04-25T03:23:29;8.60;99.90
23748;DHT22;12054;53.662;10.126;2023-04-25T03:25:55;8.60;99.90
23748;DHT22;12054;53.662;10.126;2023-04-25T03:28:22;8.50;99.90
23748;DHT22;12054;53.662;10.126;2023-04-25T03:30:47;8.60;99.90
23748;DHT22;12054;53.662;10.126;2023-04-25T03:33:13;8.50;99.90
23748;DHT22;12054;53.662;10.126;2023-04-25T03:35:38;8.50;99.90
23748;DHT22;12054;53.662;10.126;2023-04-25T03:38:04;8.50;99.90
23748;DHT22;12054;53.662;10.126;2023-04-25T03:40:29;8.40;99.90
23748;DHT22;12054;53.662;10.126;2023-04-25T03:42:55;8.40;99.90
23748;DHT22;12054;53.662;10.126;2023-04-25T03:45:20;8.30;99.90
23748;DHT22;12054;53.662;10.126;2023-04-25T03:47:46;8.30;99.90
23748;DHT22;12054;53.662;10.126;2023-04-25T03:50:11;8.30;99.90
23748;DHT22;12054;53.662;10.126;2023-04-25T03:52:37;8.30;99.90
23748;DHT22;12054;53.662;10.126;2023-04-25T03:55:02;8.30;99.90
23748;DHT22;12054;53.662;10.126;2023-04-25T03:57:29;8.20;99.90
23748;DHT22;12054;53.662;10.126;2023-04-25T03:59:56;8.20;99.90
23748;DHT22;12054;53.662;10.126;2023-04-25T04:02:21;8.20;99.90
23748;DHT22;12054;53.662;10.126;2023-04-25T04:04:47;8.20;99.90
23748;DHT22;12054;53.662;10.126;2023-04-25T04:07:13;8.20;99.90
23748;DHT22;12054;53.662;10.126;2023-04-25T04:09:38;8.10;99.90
23748;DHT22;12054;53.662;10.126;2023-04-25T04:12:04;8.20;99.90
23748;DHT22;12054;53.662;10.126;2023-04-25T04:14:30;8.20;99.90
23748;DHT22;12054;53.662;10.126;2023-04-25T04:16:55;8.10;99.90
23748;DHT22;12054;53.662;10.126;2023-04-25T04:19:21;8.10;99.90
23748;DHT22;12054;53.662;10.126;2023-04-25T04:21:46;8.10;99.90
23748;DHT22;12054;53.662;10.126;2023-04-25T04:24:12;8.10;99.90
23748;DHT22;12054;53.662;10.126;2023-04-25T04:26:37;8.10;99.90
23748;DHT22;12054;53.662;10.126;2023-04-25T04:29:04;8.10;99.90
23748;DHT22;12054;53.662;10.126;2023-04-25T04:31:29;8.00;99.90
23748;DHT22;12054;53.662;10.126;2023-04-25T04:33:55;8.00;99.90
23748;DHT22;12054;53.662;10.126;2023-04-25T04:36:20;8.00;99.90
23748;DHT22;12054;53.662;10.126;2023-04-25T04:38:48;8.00;99.90
23748;DHT22;12054;53.662;10.126;2023-04-25T04:41:14;7.90;99.90
23748;DHT22;12054;53.662;10.126;2023-04-25T04:43:39;7.90;99.90
23748;DHT22;12054;53.662;10.126;2023-04-25T04:46:05;7.90;99.90
23748;DHT22;12054;53.662;10.126;2023-04-25T04:48:33;7.90;99.90
23748;DHT22;12054;53.662;10.126;2023-04-25T04:50:59;7.90;99.90
23748;DHT22;12054;53.662;10.126;2023-04-25T04:53:25;7.90;99.90
23748;DHT22;12054;53.662;10.126;2023-04-25T04:55:51;7.90;99.90
23748;DHT22;12054;53.662;10.126;2023-04-25T04:58:16;7.90;99.90
23748;DHT22;12054;53.662;10.126;2023-04-25T05:00:42;7.80;99.90
23748;DHT22;12054;53.662;10.126;2023-04-25T05:03:07;7.80;99.90
23748;DHT22;12054;53.662;10.126;2023-04-25T05:05:33;7.80;99.90
23748;DHT22;12054;53.662;10.126;2023-04-25T05:07:58;7.80;99.90
23748;DHT22;12054;53.662;10.126;2023-04-25T05:10:25;7.80;99.90
23748;DHT22;12054;53.662;10.126;2023-04-25T05:12:50;7.80;99.90
23748;DHT22;12054;53.662;10.126;2023-04-25T05:15:16;7.80;99.90
23748;DHT22;12054;53.662;10.126;2023-04-25T05:17:41;7.80;99.90
23748;DHT22;12054;53.662;10.126;2023-04-25T05:20:07;7.80;99.90
23748;DHT22;12054;53.662;10.126;2023-04-25T05:22:34;7.70;99.90
23748;DHT22;12054;53.662;10.126;2023-04-25T05:25:00;7.70;99.90
23748;DHT22;12054;53.662;10.126;2023-04-25T05:27:26;7.70;99.90
23748;DHT22;12054;53.662;10.126;2023-04-25T05:29:51;7.70;99.90
23748;DHT22;12054;53.662;10.126;2023-04-25T05:32:18;7.60;99.90
23748;DHT22;12054;53.662;10.126;2023-04-25T05:34:43;7.60;99.90
23748;DHT22;12054;53.662;10.126;2023-04-25T05:37:12;7.50;99.90
23748;DHT22;12054;53.662;10.126;2023-04-25T05:39:37;7.50;99.90
23748;DHT22;12054;53.662;10.126;2023-04-25T05:42:03;7.50;99.90
23748;DHT22;12054;53.662;10.126;2023-04-25T05:44:29;7.50;99.90
23748;DHT22;12054;53.662;10.126;2023-04-25T05:46:55;7.50;99.90
23748;DHT22;12054;53.662;10.126;2023-04-25T05:49:20;7.40;99.90
23748;DHT22;12054;53.662;10.126;2023-04-25T05:51:46;7.40;99.90
23748;DHT22;12054;53.662;10.126;2023-04-25T05:54:12;7.50;99.90
23748;DHT22;12054;53.662;10.126;2023-04-25T05:56:37;7.50;99.90
23748;DHT22;12054;53.662;10.126;2023-04-25T05:59:03;7.50;99.90
23748;DHT22;12054;53.662;10.126;2023-04-25T06:01:29;7.50;99.90
23748;DHT22;12054;53.662;10.126;2023-04-25T06:03:54;7.50;99.90
23748;DHT22;12054;53.662;10.126;2023-04-25T06:06:20;7.40;99.90
23748;DHT22;12054;53.662;10.126;2023-04-25T06:08:45;7.40;99.90
23748;DHT22;12054;53.662;10.126;2023-04-25T06:11:14;7.40;99.90
23748;DHT22;12054;53.662;10.126;2023-04-25T06:13:42;7.40;99.90
23748;DHT22;12054;53.662;10.126;2023-04-25T06:16:08;7.40;99.90
23748;DHT22;12054;53.662;10.126;2023-04-25T06:18:33;7.40;99.90
23748;DHT22;12054;53.662;10.126;2023-04-25T06:20:59;7.40;99.90
23748;DHT22;12054;53.662;10.126;2023-04-25T06:26:52;7.40;99.90
23748;DHT22;12054;53.662;10.126;2023-04-25T06:29:18;7.50;99.90
23748;DHT22;12054;53.662;10.126;2023-04-25T06:31:44;7.50;99.90
23748;DHT22;12054;53.662;10.126;2023-04-25T06:34:09;7.50;99.90
23748;DHT22;12054;53.662;10.126;2023-04-25T06:36:35;7.50;99.90
23748;DHT22;12054;53.662;10.126;2023-04-25T06:39:00;7.50;99.90
23748;DHT22;12054;53.662;10.126;2023-04-25T06:41:26;7.50;99.90
23748;DHT22;12054;53.662;10.126;2023-04-25T06:43:51;7.60;99.90
23748;DHT22;12054;53.662;10.126;2023-04-25T06:46:17;7.60;99.90
23748;DHT22;12054;53.662;10.126;2023-04-25T06:48:42;7.60;99.90
23748;DHT22;12054;53.662;10.126;2023-04-25T06:51:08;7.60;99.90
23748;DHT22;12054;53.662;10.126;2023-04-25T06:53:33;7.60;99.90
23748;DHT22;12054;53.662;10.126;2023-04-25T06:56:00;7.60;99.90
23748;DHT22;12054;53.662;10.126;2023-04-25T06:58:25;7.60;99.90
23748;DHT22;12054;53.662;10.126;2023-04-25T07:00:51;7.60;99.90
23748;DHT22;12054;53.662;10.126;2023-04-25T07:03:17;7.60;99.90
23748;DHT22;12054;53.662;10.126;2023-04-25T07:05:42;7.60;99.90
23748;DHT22;12054;53.662;10.126;2023-04-25T07:08:09;7.60;99.90
23748;DHT22;12054;53.662;10.126;2023-04-25T07:10:34;7.60;99.90
23748;DHT22;12054;53.662;10.126;2023-04-25T07:13:00;7.60;99.90
23748;DHT22;12054;53.662;10.126;2023-04-25T07:15:25;7.60;99.90
23748;DHT22;12054;53.662;10.126;2023-04-25T07:17:51;7.60;99.90
23748;DHT22;12054;53.662;10.126;2023-04-25T07:20:17;7.70;99.90
23748;DHT22;12054;53.662;10.126;2023-04-25T07:22:42;7.70;99.90
23748;DHT22;12054;53.662;10.126;2023-04-25T07:25:08;7.70;99.90
23748;DHT22;12054;53.662;10.126;2023-04-25T07:27:34;7.60;99.90
23748;DHT22;12054;53.662;10.126;2023-04-25T07:29:59;7.60;99.90
23748;DHT22;12054;53.662;10.126;2023-04-25T07:32:25;7.60;99.90
23748;DHT22;12054;53.662;10.126;2023-04-25T07:34:51;7.70;99.90
23748;DHT22;12054;53.662;10.126;2023-04-25T07:37:17;7.70;99.90
23748;DHT22;12054;53.662;10.126;2023-04-25T07:39:44;7.60;99.90
23748;DHT22;12054;53.662;10.126;2023-04-25T07:42:11;7.70;99.90
23748;DHT22;12054;53.662;10.126;2023-04-25T07:44:37;7.80;99.90
23748;DHT22;12054;53.662;10.126;2023-04-25T07:47:07;7.80;99.90
23748;DHT22;12054;53.662;10.126;2023-04-25T07:49:34;7.80;99.90
23748;DHT22;12054;53.662;10.126;2023-04-25T07:52:04;7.90;99.90
23748;DHT22;12054;53.662;10.126;2023-04-25T07:54:30;7.90;99.90
23748;DHT22;12054;53.662;10.126;2023-04-25T07:56:56;8.00;99.90
23748;DHT22;12054;53.662;10.126;2023-04-25T07:59:21;8.00;99.90
23748;DHT22;12054;53.662;10.126;2023-04-25T08:01:47;8.10;99.90
23748;DHT22;12054;53.662;10.126;2023-04-25T08:04:13;8.20;99.90
23748;DHT22;12054;53.662;10.126;2023-04-25T08:06:44;8.40;99.90
23748;DHT22;12054;53.662;10.126;2023-04-25T08:09:10;8.60;99.90
23748;DHT22;12054;53.662;10.126;2023-04-25T08:11:36;8.70;99.90
23748;DHT22;12054;53.662;10.126;2023-04-25T08:14:02;8.80;99.90
23748;DHT22;12054;53.662;10.126;2023-04-25T08:16:28;8.80;99.90
23748;DHT22;12054;53.662;10.126;2023-04-25T08:18:54;8.80;99.90
23748;DHT22;12054;53.662;10.126;2023-04-25T08:21:19;8.80;99.90
23748;DHT22;12054;53.662;10.126;2023-04-25T08:23:45;8.80;99.90
23748;DHT22;12054;53.662;10.126;2023-04-25T08:26:11;8.70;99.90
23748;DHT22;12054;53.662;10.126;2023-04-25T08:28:46;8.60;99.90
23748;DHT22;12054;53.662;10.126;2023-04-25T08:31:12;8.60;99.90
23748;DHT22;12054;53.662;10.126;2023-04-25T08:33:37;8.50;99.90
23748;DHT22;12054;53.662;10.126;2023-04-25T08:36:03;8.50;99.90
23748;DHT22;12054;53.662;10.126;2023-04-25T08:38:28;8.50;99.90
23748;DHT22;12054;53.662;10.126;2023-04-25T08:40:55;8.60;99.90
23748;DHT22;12054;53.662;10.126;2023-04-25T08:43:23;8.70;99.90
23748;DHT22;12054;53.662;10.126;2023-04-25T08:45:49;8.70;99.90
23748;DHT22;12054;53.662;10.126;2023-04-25T08:48:17;8.80;99.90
23748;DHT22;12054;53.662;10.126;2023-04-25T08:50:55;8.80;99.90
23748;DHT22;12054;53.662;10.126;2023-04-25T08:53:29;8.90;99.90
23748;DHT22;12054;53.662;10.126;2023-04-25T08:55:56;9.00;99.90
23748;DHT22;12054;53.662;10.126;2023-04-25T08:58:23;9.10;99.90
23748;DHT22;12054;53.662;10.126;2023-04-25T09:00:49;9.30;99.90
23748;DHT22;12054;53.662;10.126;2023-04-25T09:03:15;9.50;99.90
23748;DHT22;12054;53.662;10.126;2023-04-25T09:05:42;9.70;99.90
23748;DHT22;12054;53.662;10.126;2023-04-25T09:08:07;9.80;99.90
23748;DHT22;12054;53.662;10.126;2023-04-25T09:10:34;9.90;99.90
23748;DHT22;12054;53.662;10.126;2023-04-25T09:13:11;9.90;99.90
23748;DHT22;12054;53.662;10.126;2023-04-25T09:15:56;9.90;99.90
23748;DHT22;12054;53.662;10.126;2023-04-25T09:18:26;9.90;99.90
23748;DHT22;12054;53.662;10.126;2023-04-25T09:21:07;9.90;99.90
23748;DHT22;12054;53.662;10.126;2023-04-25T09:23:43;9.90;99.90
23748;DHT22;12054;53.662;10.126;2023-04-25T09:26:09;9.90;99.90
23748;DHT22;12054;53.662;10.126;2023-04-25T09:28:35;9.90;99.90
23748;DHT22;12054;53.662;10.126;2023-04-25T09:31:01;9.90;99.90
23748;DHT22;12054;53.662;10.126;2023-04-25T09:33:33;9.90;99.90
23748;DHT22;12054;53.662;10.126;2023-04-25T09:36:07;9.80;99.90
23748;DHT22;12054;53.662;10.126;2023-04-25T09:38:45;9.90;99.90
23748;DHT22;12054;53.662;10.126;2023-04-25T09:41:11;10.00;99.90
23748;DHT22;12054;53.662;10.126;2023-04-25T09:43:37;10.10;99.90
23748;DHT22;12054;53.662;10.126;2023-04-25T09:46:10;10.20;99.90
23748;DHT22;12054;53.662;10.126;2023-04-25T09:48:36;10.40;99.90
23748;DHT22;12054;53.662;10.126;2023-04-25T09:51:13;10.50;99.90
23748;DHT22;12054;53.662;10.126;2023-04-25T09:53:44;10.50;99.90
23748;DHT22;12054;53.662;10.126;2023-04-25T09:56:12;10.50;99.90
23748;DHT22;12054;53.662;10.126;2023-04-25T09:58:39;10.40;99.90
23748;DHT22;12054;53.662;10.126;2023-04-25T10:01:07;10.30;99.90
23748;DHT22;12054;53.662;10.126;2023-04-25T10:03:35;10.20;99.90
23748;DHT22;12054;53.662;10.126;2023-04-25T10:06:03;10.10;99.90
23748;DHT22;12054;53.662;10.126;2023-04-25T10:08:34;10.10;99.90
23748;DHT22;12054;53.662;10.126;2023-04-25T10:11:02;10.10;99.90
23748;DHT22;12054;53.662;10.126;2023-04-25T10:13:32;10.20;99.90
23748;DHT22;12054;53.662;10.126;2023-04-25T10:15:58;10.30;99.90
23748;DHT22;12054;53.662;10.126;2023-04-25T10:18:25;10.40;99.90
23748;DHT22;12054;53.662;10.126;2023-04-25T10:20:52;10.60;99.90
23748;DHT22;12054;53.662;10.126;2023-04-25T10:23:18;10.70;99.90
23748;DHT22;12054;53.662;10.126;2023-04-25T10:25:45;10.80;99.90
23748;DHT22;12054;53.662;10.126;2023-04-25T10:28:14;10.80;99.90
23748;DHT22;12054;53.662;10.126;2023-04-25T10:33:35;10.90;99.90
23748;DHT22;12054;53.662;10.126;2023-04-25T10:36:12;10.90;99.90
23748;DHT22;12054;53.662;10.126;2023-04-25T10:38:38;11.00;99.90
23748;DHT22;12054;53.662;10.126;2023-04-25T10:41:05;11.00;99.90
23748;DHT22;12054;53.662;10.126;2023-04-25T10:43:44;11.10;99.90
23748;DHT22;12054;53.662;10.126;2023-04-25T10:48:54;11.20;99.90
23748;DHT22;12054;53.662;10.126;2023-04-25T10:54:03;11.30;99.90
23748;DHT22;12054;53.662;10.126;2023-04-25T10:56:33;11.40;99.90
23748;DHT22;12054;53.662;10.126;2023-04-25T10:59:13;11.40;99.90
23748;DHT22;12054;53.662;10.126;2023-04-25T11:01:40;11.40;99.90
23748;DHT22;12054;53.662;10.126;2023-04-25T11:04:19;11.30;99.90
23748;DHT22;12054;53.662;10.126;2023-04-25T11:09:24;11.10;99.90
23748;DHT22;12054;53.662;10.126;2023-04-25T11:11:56;11.20;99.90
23748;DHT22;12054;53.662;10.126;2023-04-25T11:14:22;11.10;99.90
23748;DHT22;12054;53.662;10.126;2023-04-25T11:16:58;11.10;99.90
23748;DHT22;12054;53.662;10.126;2023-04-25T11:19:25;11.10;99.90
23748;DHT22;12054;53.662;10.126;2023-04-25T11:21:58;11.10;99.90
23748;DHT22;12054;53.662;10.126;2023-04-25T11:24:28;11.00;99.90
23748;DHT22;12054;53.662;10.126;2023-04-25T11:26:54;11.00;99.90
23748;DHT22;12054;53.662;10.126;2023-04-25T11:29:22;10.90;99.90
23748;DHT22;12054;53.662;10.126;2023-04-25T11:31:48;10.90;99.90
23748;DHT22;12054;53.662;10.126;2023-04-25T11:34:18;10.90;99.90
23748;DHT22;12054;53.662;10.126;2023-04-25T11:36:45;10.80;99.90
23748;DHT22;12054;53.662;10.126;2023-04-25T11:39:10;10.80;99.90
23748;DHT22;12054;53.662;10.126;2023-04-25T11:41:37;10.80;99.90
23748;DHT22;12054;53.662;10.126;2023-04-25T11:44:03;10.90;99.90
23748;DHT22;12054;53.662;10.126;2023-04-25T11:46:29;11.00;99.90
23748;DHT22;12054;53.662;10.126;2023-04-25T11:48:55;11.10;99.90
23748;DHT22;12054;53.662;10.126;2023-04-25T11:51:21;11.30;99.90
23748;DHT22;12054;53.662;10.126;2023-04-25T11:53:47;11.40;99.90
23748;DHT22;12054;53.662;10.126;2023-04-25T11:56:13;11.50;99.90
23748;DHT22;12054;53.662;10.126;2023-04-25T11:58:57;11.60;99.90
23748;DHT22;12054;53.662;10.126;2023-04-25T12:01:29;11.70;99.90
23748;DHT22;12054;53.662;10.126;2023-04-25T12:03:56;11.90;99.90
23748;DHT22;12054;53.662;10.126;2023-04-25T12:06:26;12.00;99.90
23748;DHT22;12054;53.662;10.126;2023-04-25T12:09:02;12.10;99.90
23748;DHT22;12054;53.662;10.126;2023-04-25T12:11:32;12.30;99.90
23748;DHT22;12054;53.662;10.126;2023-04-25T12:14:05;12.40;99.90
23748;DHT22;12054;53.662;10.126;2023-04-25T12:16:44;12.40;99.90
23748;DHT22;12054;53.662;10.126;2023-04-25T12:19:13;12.30;99.90
23748;DHT22;12054;53.662;10.126;2023-04-25T12:21:39;12.30;99.90
23748;DHT22;12054;53.662;10.126;2023-04-25T12:24:37;12.20;99.90
23748;DHT22;12054;53.662;10.126;2023-04-25T12:27:05;12.20;99.70
23748;DHT22;12054;53.662;10.126;2023-04-25T12:29:32;12.20;99.90
23748;DHT22;12054;53.662;10.126;2023-04-25T12:31:58;12.10;99.90
23748;DHT22;12054;53.662;10.126;2023-04-25T12:34:25;12.10;99.80
23748;DHT22;12054;53.662;10.126;2023-04-25T12:36:51;12.10;99.70
23748;DHT22;12054;53.662;10.126;2023-04-25T12:39:22;12.10;99.70
23748;DHT22;12054;53.662;10.126;2023-04-25T12:41:48;12.20;99.50
23748;DHT22;12054;53.662;10.126;2023-04-25T12:44:14;12.20;98.90
23748;DHT22;12054;53.662;10.126;2023-04-25T12:46:41;12.20;98.50
23748;DHT22;12054;53.662;10.126;2023-04-25T12:49:07;12.10;98.60
23748;DHT22;12054;53.662;10.126;2023-04-25T12:51:37;12.00;99.00
23748;DHT22;12054;53.662;10.126;2023-04-25T12:54:04;12.00;99.10
23748;DHT22;12054;53.662;10.126;2023-04-25T12:56:30;11.90;99.30
23748;DHT22;12054;53.662;10.126;2023-04-25T12:58:56;11.90;99.50
23748;DHT22;12054;53.662;10.126;2023-04-25T13:01:22;11.80;99.60
23748;DHT22;12054;53.662;10.126;2023-04-25T13:03:48;11.80;99.80
23748;DHT22;12054;53.662;10.126;2023-04-25T13:06:15;11.70;99.90
23748;DHT22;12054;53.662;10.126;2023-04-25T13:08:41;11.70;99.90
23748;DHT22;12054;53.662;10.126;2023-04-25T13:11:07;11.70;99.90
23748;DHT22;12054;53.662;10.126;2023-04-25T13:13:32;11.80;99.90
23748;DHT22;12054;53.662;10.126;2023-04-25T13:16:00;11.80;99.90
23748;DHT22;12054;53.662;10.126;2023-04-25T13:18:27;11.90;99.90
23748;DHT22;12054;53.662;10.126;2023-04-25T13:20:53;11.90;99.90
23748;DHT22;12054;53.662;10.126;2023-04-25T13:23:19;12.00;99.90
23748;DHT22;12054;53.662;10.126;2023-04-25T13:25:45;12.00;99.90
23748;DHT22;12054;53.662;10.126;2023-04-25T13:28:11;11.90;99.70
23748;DHT22;12054;53.662;10.126;2023-04-25T13:30:36;11.90;99.70
23748;DHT22;12054;53.662;10.126;2023-04-25T13:33:02;11.80;99.70
23748;DHT22;12054;53.662;10.126;2023-04-25T13:35:33;11.70;99.90
23748;DHT22;12054;53.662;10.126;2023-04-25T13:37:59;11.60;99.90
23748;DHT22;12054;53.662;10.126;2023-04-25T13:40:25;11.60;99.90
23748;DHT22;12054;53.662;10.126;2023-04-25T13:42:50;11.70;99.90
23748;DHT22;12054;53.662;10.126;2023-04-25T13:45:16;11.70;99.90
23748;DHT22;12054;53.662;10.126;2023-04-25T13:47:42;11.80;99.90
23748;DHT22;12054;53.662;10.126;2023-04-25T13:50:08;11.80;99.90
23748;DHT22;12054;53.662;10.126;2023-04-25T13:52:34;11.80;99.90
23748;DHT22;12054;53.662;10.126;2023-04-25T13:54:59;11.70;99.90
23748;DHT22;12054;53.662;10.126;2023-04-25T13:57:25;11.60;99.90
23748;DHT22;12054;53.662;10.126;2023-04-25T13:59:51;11.40;99.90
23748;DHT22;12054;53.662;10.126;2023-04-25T14:02:18;11.30;99.90
23748;DHT22;12054;53.662;10.126;2023-04-25T14:04:43;11.30;99.90
23748;DHT22;12054;53.662;10.126;2023-04-25T14:07:10;11.30;99.90
23748;DHT22;12054;53.662;10.126;2023-04-25T14:09:36;11.20;99.90
23748;DHT22;12054;53.662;10.126;2023-04-25T14:12:02;11.20;99.90
23748;DHT22;12054;53.662;10.126;2023-04-25T14:14:27;11.20;99.90
23748;DHT22;12054;53.662;10.126;2023-04-25T14:16:53;11.20;99.90
23748;DHT22;12054;53.662;10.126;2023-04-25T14:19:20;11.20;99.90
23748;DHT22;12054;53.662;10.126;2023-04-25T14:21:46;11.30;99.90
23748;DHT22;12054;53.662;10.126;2023-04-25T14:24:12;11.30;99.90
23748;DHT22;12054;53.662;10.126;2023-04-25T14:26:38;11.30;99.90
23748;DHT22;12054;53.662;10.126;2023-04-25T14:29:07;11.40;99.90
23748;DHT22;12054;53.662;10.126;2023-04-25T14:31:34;11.50;99.90
23748;DHT22;12054;53.662;10.126;2023-04-25T14:34:00;11.50;99.90
23748;DHT22;12054;53.662;10.126;2023-04-25T14:36:26;11.50;99.90
23748;DHT22;12054;53.662;10.126;2023-04-25T14:38:53;11.50;99.90
23748;DHT22;12054;53.662;10.126;2023-04-25T14:41:18;11.50;99.90
23748;DHT22;12054;53.662;10.126;2023-04-25T14:43:44;11.50;99.90
23748;DHT22;12054;53.662;10.126;2023-04-25T14:46:10;11.50;99.90
23748;DHT22;12054;53.662;10.126;2023-04-25T14:48:36;11.40;99.80
23748;DHT22;12054;53.662;10.126;2023-04-25T14:51:01;11.40;99.90
23748;DHT22;12054;53.662;10.126;2023-04-25T14:53:27;11.40;99.80
23748;DHT22;12054;53.662;10.126;2023-04-25T14:55:53;11.50;99.50
23748;DHT22;12054;53.662;10.126;2023-04-25T14:58:19;11.50;99.40
23748;DHT22;12054;53.662;10.126;2023-04-25T15:00:46;11.50;99.20
23748;DHT22;12054;53.662;10.126;2023-04-25T15:03:12;11.40;99.20
23748;DHT22;12054;53.662;10.126;2023-04-25T15:05:39;11.40;99.20
23748;DHT22;12054;53.662;10.126;2023-04-25T15:08:05;11.30;99.20
23748;DHT22;12054;53.662;10.126;2023-04-25T15:10:31;11.30;99.40
23748;DHT22;12054;53.662;10.126;2023-04-25T15:13:02;11.20;99.30
23748;DHT22;12054;53.662;10.126;2023-04-25T15:15:29;11.20;99.60
23748;DHT22;12054;53.662;10.126;2023-04-25T15:17:56;11.10;99.70
23748;DHT22;12054;53.662;10.126;2023-04-25T15:20:22;11.00;99.90
23748;DHT22;12054;53.662;10.126;2023-04-25T15:22:47;10.90;99.90
23748;DHT22;12054;53.662;10.126;2023-04-25T15:25:14;10.80;99.50
23748;DHT22;12054;53.662;10.126;2023-04-25T15:27:42;10.80;99.30
23748;DHT22;12054;53.662;10.126;2023-04-25T15:30:10;10.70;99.00
23748;DHT22;12054;53.662;10.126;2023-04-25T15:32:42;10.70;98.70
23748;DHT22;12054;53.662;10.126;2023-04-25T15:35:08;10.60;98.50
23748;DHT22;12054;53.662;10.126;2023-04-25T15:37:34;10.60;98.70
23748;DHT22;12054;53.662;10.126;2023-04-25T15:40:13;10.70;98.90